sensor_id;sensor_type;location;lat;lon;timestamp;P1;durP1;ratioP1;P2;durP2;ratioP2
7338;SDS011;33747;49.524;8.390;2023-03-23T00:02:23;2.13;;;1.27;;
7338;SDS011;33747;49.524;8.390;2023-03-23T00:04:49;1.50;;;1.20;;
7338;SDS011;33747;49.524;8.390;2023-03-23T00:07:15;5.10;;;1.40;;
7338;SDS011;33747;49.524;8.390;2023-03-23T00:09:46;1.00;;;1.00;;
7338;SDS011;33747;49.524;8.390;2023-03-23T00:12:12;1.45;;;1.20;;
7338;SDS011;33747;49.524;8.390;2023-03-23T00:14:40;1.60;;;1.33;;
7338;SDS011;33747;49.524;8.390;2023-03-23T00:17:09;1.55;;;1.13;;
7338;SDS011;33747;49.524;8.390;2023-03-23T00:19:36;1.40;;;1.10;;
7338;SDS011;33747;49.524;8.390;2023-03-23T00:22:11;4.53;;;1.42;;
7338;SDS011;33747;49.524;8.390;2023-03-23T00:24:40;2.75;;;1.48;;
7338;SDS011;33747;49.524;8.390;2023-03-23T00:27:06;1.65;;;1.40;;
7338;SDS011;33747;49.524;8.390;2023-03-23T00:29:33;2.75;;;1.20;;
7338;SDS011;33747;49.524;8.390;2023-03-23T00:31:58;2.08;;;1.00;;
7338;SDS011;33747;49.524;8.390;2023-03-23T00:34:24;6.30;;;1.17;;
7338;SDS011;33747;49.524;8.390;2023-03-23T00:36:51;2.33;;;1.33;;
7338;SDS011;33747;49.524;8.390;2023-03-23T00:39:18;2.15;;;1.33;;
7338;SDS011;33747;49.524;8.390;2023-03-23T00:41:44;1.85;;;1.02;;
7338;SDS011;33747;49.524;8.390;2023-03-23T00:44:10;2.63;;;1.40;;
7338;SDS011;33747;49.524;8.390;2023-03-23T00:46:41;1.50;;;1.20;;
7338;SDS011;33747;49.524;8.390;2023-03-23T00:49:10;2.63;;;1.40;;
7338;SDS011;33747;49.524;8.390;2023-03-23T00:51:37;2.08;;;1.50;;
7338;SDS011;33747;49.524;8.390;2023-03-23T00:54:03;1.90;;;1.30;;
7338;SDS011;33747;49.524;8.390;2023-03-23T00:56:28;1.67;;;1.30;;
7338;SDS011;33747;49.524;8.390;2023-03-23T00:58:54;1.88;;;1.20;;
7338;SDS011;33747;49.524;8.390;2023-03-23T01:01:19;1.45;;;1.20;;
7338;SDS011;33747;49.524;8.390;2023-03-23T01:03:45;1.80;;;1.13;;
7338;SDS011;33747;49.524;8.390;2023-03-23T01:06:11;5.13;;;1.45;;
7338;SDS011;33747;49.524;8.390;2023-03-23T01:08:39;1.13;;;1.02;;
7338;SDS011;33747;49.524;8.390;2023-03-23T01:11:10;1.10;;;1.00;;
7338;SDS011;33747;49.524;8.390;2023-03-23T01:13:40;1.50;;;1.25;;
7338;SDS011;33747;49.524;8.390;2023-03-23T01:16:07;1.88;;;1.10;;
7338;SDS011;33747;49.524;8.390;2023-03-23T01:18:32;1.88;;;1.40;;
7338;SDS011;33747;49.524;8.390;2023-03-23T01:20:58;2.95;;;1.38;;
7338;SDS011;33747;49.524;8.390;2023-03-23T01:23:32;1.75;;;1.25;;
7338;SDS011;33747;49.524;8.390;2023-03-23T01:26:01;2.40;;;1.40;;
7338;SDS011;33747;49.524;8.390;2023-03-23T01:28:37;3.15;;;1.42;;
7338;SDS011;33747;49.524;8.390;2023-03-23T01:31:03;1.40;;;1.00;;
7338;SDS011;33747;49.524;8.390;2023-03-23T01:33:33;1.90;;;1.10;;
7338;SDS011;33747;49.524;8.390;2023-03-23T01:36:02;3.13;;;1.55;;
7338;SDS011;33747;49.524;8.390;2023-03-23T01:38:29;2.20;;;1.25;;
7338;SDS011;33747;49.524;8.390;2023-03-23T01:40:54;1.20;;;1.10;;
7338;SDS011;33747;49.524;8.390;2023-03-23T01:43:20;1.75;;;1.40;;
7338;SDS011;33747;49.524;8.390;2023-03-23T01:45:45;1.27;;;1.13;;
7338;SDS011;33747;49.524;8.390;2023-03-23T01:50:44;2.05;;;1.20;;
7338;SDS011;33747;49.524;8.390;2023-03-23T01:53:14;3.28;;;1.25;;
7338;SDS011;33747;49.524;8.390;2023-03-23T01:55:40;1.02;;;1.00;;
7338;SDS011;33747;49.524;8.390;2023-03-23T01:58:06;1.45;;;0.98;;
7338;SDS011;33747;49.524;8.390;2023-03-23T02:00:31;3.90;;;1.40;;
7338;SDS011;33747;49.524;8.390;2023-03-23T02:02:58;2.08;;;1.05;;
7338;SDS011;33747;49.524;8.390;2023-03-23T02:05:25;2.70;;;1.10;;
7338;SDS011;33747;49.524;8.390;2023-03-23T02:07:55;3.47;;;1.13;;
7338;SDS011;33747;49.524;8.390;2023-03-23T02:10:23;1.13;;;1.10;;
7338;SDS011;33747;49.524;8.390;2023-03-23T02:12:49;1.95;;;1.02;;
7338;SDS011;33747;49.524;8.390;2023-03-23T02:15:14;2.47;;;1.10;;
7338;SDS011;33747;49.524;8.390;2023-03-23T02:17:48;0.77;;;0.77;;
7338;SDS011;33747;49.524;8.390;2023-03-23T02:20:19;1.35;;;1.25;;
7338;SDS011;33747;49.524;8.390;2023-03-23T02:25:25;4.38;;;1.40;;
7338;SDS011;33747;49.524;8.390;2023-03-23T02:36:36;1.50;;;1.10;;
7338;SDS011;33747;49.524;8.390;2023-03-23T02:41:44;2.08;;;1.42;;
7338;SDS011;33747;49.524;8.390;2023-03-23T02:44:10;1.42;;;1.20;;
7338;SDS011;33747;49.524;8.390;2023-03-23T02:46:37;2.40;;;1.27;;
7338;SDS011;33747;49.524;8.390;2023-03-23T02:49:04;2.95;;;1.50;;
7338;SDS011;33747;49.524;8.390;2023-03-23T02:51:31;2.22;;;1.48;;
7338;SDS011;33747;49.524;8.390;2023-03-23T02:53:58;1.52;;;1.10;;
7338;SDS011;33747;49.524;8.390;2023-03-23T02:56:25;4.32;;;1.23;;
7338;SDS011;33747;49.524;8.390;2023-03-23T02:58:52;2.28;;;1.08;;
7338;SDS011;33747;49.524;8.390;2023-03-23T03:03:50;3.58;;;1.30;;
7338;SDS011;33747;49.524;8.390;2023-03-23T03:11:42;3.50;;;1.15;;
7338;SDS011;33747;49.524;8.390;2023-03-23T03:14:12;4.97;;;1.15;;
7338;SDS011;33747;49.524;8.390;2023-03-23T03:16:52;1.55;;;1.10;;
7338;SDS011;33747;49.524;8.390;2023-03-23T03:19:26;1.92;;;1.42;;
7338;SDS011;33747;49.524;8.390;2023-03-23T03:21:54;4.40;;;1.17;;
7338;SDS011;33747;49.524;8.390;2023-03-23T03:24:22;2.85;;;1.45;;
7338;SDS011;33747;49.524;8.390;2023-03-23T03:26:50;1.52;;;1.38;;
7338;SDS011;33747;49.524;8.390;2023-03-23T03:29:18;3.25;;;1.10;;
7338;SDS011;33747;49.524;8.390;2023-03-23T03:31:46;1.08;;;0.98;;
7338;SDS011;33747;49.524;8.390;2023-03-23T03:34:15;3.08;;;1.38;;
7338;SDS011;33747;49.524;8.390;2023-03-23T03:36:46;1.52;;;1.05;;
7338;SDS011;33747;49.524;8.390;2023-03-23T03:39:13;2.33;;;1.30;;
7338;SDS011;33747;49.524;8.390;2023-03-23T03:41:42;2.75;;;1.10;;
7338;SDS011;33747;49.524;8.390;2023-03-23T03:44:08;5.03;;;1.38;;
7338;SDS011;33747;49.524;8.390;2023-03-23T03:46:34;1.80;;;1.40;;
7338;SDS011;33747;49.524;8.390;2023-03-23T03:49:00;1.83;;;1.33;;
7338;SDS011;33747;49.524;8.390;2023-03-23T03:51:26;4.28;;;1.80;;
7338;SDS011;33747;49.524;8.390;2023-03-23T03:53:52;4.50;;;1.90;;
7338;SDS011;33747;49.524;8.390;2023-03-23T03:56:18;2.42;;;1.52;;
7338;SDS011;33747;49.524;8.390;2023-03-23T03:58:44;1.90;;;1.33;;
7338;SDS011;33747;49.524;8.390;2023-03-23T04:01:10;2.65;;;1.60;;
7338;SDS011;33747;49.524;8.390;2023-03-23T04:03:36;1.83;;;1.50;;
7338;SDS011;33747;49.524;8.390;2023-03-23T04:06:02;1.98;;;1.77;;
7338;SDS011;33747;49.524;8.390;2023-03-23T04:08:28;4.20;;;1.60;;
7338;SDS011;33747;49.524;8.390;2023-03-23T04:10:53;2.78;;;1.40;;
7338;SDS011;33747;49.524;8.390;2023-03-23T04:13:24;6.47;;;1.38;;
7338;SDS011;33747;49.524;8.390;2023-03-23T04:15:49;2.58;;;1.33;;
7338;SDS011;33747;49.524;8.390;2023-03-23T04:18:15;1.55;;;1.33;;
7338;SDS011;33747;49.524;8.390;2023-03-23T04:20:43;1.70;;;1.60;;
7338;SDS011;33747;49.524;8.390;2023-03-23T04:23:12;2.75;;;1.58;;
7338;SDS011;33747;49.524;8.390;2023-03-23T04:25:45;1.95;;;1.52;;
7338;SDS011;33747;49.524;8.390;2023-03-23T04:28:11;1.98;;;1.73;;
7338;SDS011;33747;49.524;8.390;2023-03-23T04:30:37;4.03;;;1.63;;
7338;SDS011;33747;49.524;8.390;2023-03-23T04:33:02;1.90;;;1.70;;
7338;SDS011;33747;49.524;8.390;2023-03-23T04:35:28;3.50;;;1.58;;
7338;SDS011;33747;49.524;8.390;2023-03-23T04:37:54;6.90;;;1.58;;
7338;SDS011;33747;49.524;8.390;2023-03-23T04:40:21;2.20;;;1.60;;
7338;SDS011;33747;49.524;8.390;2023-03-23T04:42:47;3.63;;;1.85;;
7338;SDS011;33747;49.524;8.390;2023-03-23T04:45:14;4.40;;;1.70;;
7338;SDS011;33747;49.524;8.390;2023-03-23T04:47:47;2.75;;;1.98;;
7338;SDS011;33747;49.524;8.390;2023-03-23T04:50:22;2.50;;;1.80;;
7338;SDS011;33747;49.524;8.390;2023-03-23T04:52:49;4.25;;;1.77;;
7338;SDS011;33747;49.524;8.390;2023-03-23T04:55:16;2.53;;;1.83;;
7338;SDS011;33747;49.524;8.390;2023-03-23T04:57:41;5.65;;;1.83;;
7338;SDS011;33747;49.524;8.390;2023-03-23T05:00:07;1.90;;;1.60;;
7338;SDS011;33747;49.524;8.390;2023-03-23T05:02:36;2.85;;;1.65;;
7338;SDS011;33747;49.524;8.390;2023-03-23T05:05:04;3.20;;;1.75;;
7338;SDS011;33747;49.524;8.390;2023-03-23T05:07:30;1.35;;;1.25;;
7338;SDS011;33747;49.524;8.390;2023-03-23T05:09:56;3.13;;;1.67;;
7338;SDS011;33747;49.524;8.390;2023-03-23T05:12:21;4.75;;;1.80;;
7338;SDS011;33747;49.524;8.390;2023-03-23T05:14:46;1.83;;;1.60;;
7338;SDS011;33747;49.524;8.390;2023-03-23T05:17:12;3.47;;;1.58;;
7338;SDS011;33747;49.524;8.390;2023-03-23T05:19:41;2.65;;;1.90;;
7338;SDS011;33747;49.524;8.390;2023-03-23T05:22:08;2.20;;;1.58;;
7338;SDS011;33747;49.524;8.390;2023-03-23T05:24:34;2.38;;;1.80;;
7338;SDS011;33747;49.524;8.390;2023-03-23T05:26:59;4.32;;;1.73;;
7338;SDS011;33747;49.524;8.390;2023-03-23T05:29:25;1.90;;;1.80;;
7338;SDS011;33747;49.524;8.390;2023-03-23T05:31:51;1.85;;;1.60;;
7338;SDS011;33747;49.524;8.390;2023-03-23T05:34:18;2.63;;;1.80;;
7338;SDS011;33747;49.524;8.390;2023-03-23T05:36:43;6.88;;;1.58;;
7338;SDS011;33747;49.524;8.390;2023-03-23T05:39:10;4.50;;;1.70;;
7338;SDS011;33747;49.524;8.390;2023-03-23T05:41:36;3.45;;;1.70;;
7338;SDS011;33747;49.524;8.390;2023-03-23T05:44:02;2.30;;;1.88;;
7338;SDS011;33747;49.524;8.390;2023-03-23T05:46:28;1.40;;;1.20;;
7338;SDS011;33747;49.524;8.390;2023-03-23T05:48:53;3.58;;;2.08;;
7338;SDS011;33747;49.524;8.390;2023-03-23T05:51:19;2.95;;;1.83;;
7338;SDS011;33747;49.524;8.390;2023-03-23T05:53:45;2.30;;;1.27;;
7338;SDS011;33747;49.524;8.390;2023-03-23T05:56:10;3.63;;;1.20;;
7338;SDS011;33747;49.524;8.390;2023-03-23T05:58:39;1.33;;;1.10;;
7338;SDS011;33747;49.524;8.390;2023-03-23T06:01:08;1.30;;;1.20;;
7338;SDS011;33747;49.524;8.390;2023-03-23T06:03:33;4.47;;;1.17;;
7338;SDS011;33747;49.524;8.390;2023-03-23T06:06:01;1.10;;;1.00;;
7338;SDS011;33747;49.524;8.390;2023-03-23T06:08:27;1.60;;;0.90;;
7338;SDS011;33747;49.524;8.390;2023-03-23T06:10:53;3.15;;;1.10;;
7338;SDS011;33747;49.524;8.390;2023-03-23T06:13:18;5.45;;;1.42;;
7338;SDS011;33747;49.524;8.390;2023-03-23T06:15:44;2.58;;;1.17;;
7338;SDS011;33747;49.524;8.390;2023-03-23T06:18:09;1.52;;;1.20;;
7338;SDS011;33747;49.524;8.390;2023-03-23T06:20:35;1.33;;;1.23;;
7338;SDS011;33747;49.524;8.390;2023-03-23T06:23:00;3.15;;;0.90;;
7338;SDS011;33747;49.524;8.390;2023-03-23T06:25:26;1.67;;;1.05;;
7338;SDS011;33747;49.524;8.390;2023-03-23T06:27:52;2.83;;;1.20;;
7338;SDS011;33747;49.524;8.390;2023-03-23T06:30:17;2.85;;;1.10;;
7338;SDS011;33747;49.524;8.390;2023-03-23T06:32:43;1.33;;;1.10;;
7338;SDS011;33747;49.524;8.390;2023-03-23T06:35:11;1.27;;;1.00;;
7338;SDS011;33747;49.524;8.390;2023-03-23T06:37:37;1.50;;;1.20;;
7338;SDS011;33747;49.524;8.390;2023-03-23T06:40:03;19.58;;;1.45;;
7338;SDS011;33747;49.524;8.390;2023-03-23T06:42:31;1.17;;;1.00;;
7338;SDS011;33747;49.524;8.390;2023-03-23T06:44:57;2.05;;;1.02;;
7338;SDS011;33747;49.524;8.390;2023-03-23T06:47:23;1.92;;;1.17;;
7338;SDS011;33747;49.524;8.390;2023-03-23T06:49:49;1.30;;;1.20;;
7338;SDS011;33747;49.524;8.390;2023-03-23T06:52:14;1.02;;;1.00;;
7338;SDS011;33747;49.524;8.390;2023-03-23T06:54:40;0.73;;;0.73;;
7338;SDS011;33747;49.524;8.390;2023-03-23T06:57:06;1.92;;;1.25;;
7338;SDS011;33747;49.524;8.390;2023-03-23T06:59:32;1.83;;;1.30;;
7338;SDS011;33747;49.524;8.390;2023-03-23T07:01:57;2.50;;;0.90;;
7338;SDS011;33747;49.524;8.390;2023-03-23T07:04:23;1.45;;;1.00;;
7338;SDS011;33747;49.524;8.390;2023-03-23T07:06:48;2.00;;;1.20;;
7338;SDS011;33747;49.524;8.390;2023-03-23T07:09:14;1.85;;;1.23;;
7338;SDS011;33747;49.524;8.390;2023-03-23T07:11:40;3.33;;;1.30;;
7338;SDS011;33747;49.524;8.390;2023-03-23T07:14:05;1.40;;;1.17;;
7338;SDS011;33747;49.524;8.390;2023-03-23T07:16:31;1.25;;;1.10;;
7338;SDS011;33747;49.524;8.390;2023-03-23T07:18:56;1.02;;;0.90;;
7338;SDS011;33747;49.524;8.390;2023-03-23T07:21:22;1.00;;;0.90;;
7338;SDS011;33747;49.524;8.390;2023-03-23T07:23:47;0.90;;;0.90;;
7338;SDS011;33747;49.524;8.390;2023-03-23T07:26:13;2.03;;;1.20;;
7338;SDS011;33747;49.524;8.390;2023-03-23T07:28:38;0.80;;;0.80;;
7338;SDS011;33747;49.524;8.390;2023-03-23T07:31:05;1.10;;;1.00;;
7338;SDS011;33747;49.524;8.390;2023-03-23T07:33:32;1.02;;;1.00;;
7338;SDS011;33747;49.524;8.390;2023-03-23T07:35:58;2.78;;;1.10;;
7338;SDS011;33747;49.524;8.390;2023-03-23T07:38:25;1.00;;;0.88;;
7338;SDS011;33747;49.524;8.390;2023-03-23T07:40:53;1.10;;;1.00;;
7338;SDS011;33747;49.524;8.390;2023-03-23T07:43:19;1.00;;;0.90;;
7338;SDS011;33747;49.524;8.390;2023-03-23T07:45:45;2.35;;;1.17;;
7338;SDS011;33747;49.524;8.390;2023-03-23T07:48:10;1.67;;;0.95;;
7338;SDS011;33747;49.524;8.390;2023-03-23T07:50:36;1.73;;;1.13;;
7338;SDS011;33747;49.524;8.390;2023-03-23T07:53:02;1.67;;;1.20;;
7338;SDS011;33747;49.524;8.390;2023-03-23T07:55:28;0.95;;;0.80;;
7338;SDS011;33747;49.524;8.390;2023-03-23T07:57:53;1.08;;;1.00;;
7338;SDS011;33747;49.524;8.390;2023-03-23T08:00:19;2.47;;;1.00;;
7338;SDS011;33747;49.524;8.390;2023-03-23T08:02:48;1.10;;;0.90;;
7338;SDS011;33747;49.524;8.390;2023-03-23T08:05:17;0.80;;;0.70;;
7338;SDS011;33747;49.524;8.390;2023-03-23T08:07:43;1.58;;;0.90;;
7338;SDS011;33747;49.524;8.390;2023-03-23T08:10:10;1.83;;;1.10;;
7338;SDS011;33747;49.524;8.390;2023-03-23T08:12:37;1.25;;;0.70;;
7338;SDS011;33747;49.524;8.390;2023-03-23T08:15:04;1.25;;;1.00;;
7338;SDS011;33747;49.524;8.390;2023-03-23T08:17:31;3.42;;;0.80;;
7338;SDS011;33747;49.524;8.390;2023-03-23T08:19:56;0.70;;;0.70;;
7338;SDS011;33747;49.524;8.390;2023-03-23T08:22:22;1.15;;;0.90;;
7338;SDS011;33747;49.524;8.390;2023-03-23T08:24:48;2.05;;;1.00;;
7338;SDS011;33747;49.524;8.390;2023-03-23T08:27:13;0.80;;;0.80;;
7338;SDS011;33747;49.524;8.390;2023-03-23T08:29:39;1.73;;;0.90;;
7338;SDS011;33747;49.524;8.390;2023-03-23T08:32:05;1.10;;;1.00;;
7338;SDS011;33747;49.524;8.390;2023-03-23T08:34:31;1.00;;;0.90;;
7338;SDS011;33747;49.524;8.390;2023-03-23T08:36:56;3.53;;;1.08;;
7338;SDS011;33747;49.524;8.390;2023-03-23T08:39:22;2.38;;;1.10;;
7338;SDS011;33747;49.524;8.390;2023-03-23T08:41:48;3.88;;;1.13;;
7338;SDS011;33747;49.524;8.390;2023-03-23T08:44:13;1.67;;;1.05;;
7338;SDS011;33747;49.524;8.390;2023-03-23T08:46:39;2.40;;;1.15;;
7338;SDS011;33747;49.524;8.390;2023-03-23T08:49:04;1.45;;;1.20;;
7338;SDS011;33747;49.524;8.390;2023-03-23T08:51:30;3.88;;;1.02;;
7338;SDS011;33747;49.524;8.390;2023-03-23T08:53:56;1.92;;;0.93;;
7338;SDS011;33747;49.524;8.390;2023-03-23T08:56:22;1.80;;;1.10;;
7338;SDS011;33747;49.524;8.390;2023-03-23T08:58:47;2.60;;;1.30;;
7338;SDS011;33747;49.524;8.390;2023-03-23T09:01:13;1.55;;;1.00;;
7338;SDS011;33747;49.524;8.390;2023-03-23T09:03:39;1.48;;;1.20;;
7338;SDS011;33747;49.524;8.390;2023-03-23T09:06:06;8.25;;;1.20;;
7338;SDS011;33747;49.524;8.390;2023-03-23T09:08:32;7.20;;;1.30;;
7338;SDS011;33747;49.524;8.390;2023-03-23T09:10:58;8.55;;;2.60;;
7338;SDS011;33747;49.524;8.390;2023-03-23T09:13:24;2.30;;;1.45;;
7338;SDS011;33747;49.524;8.390;2023-03-23T09:15:50;2.65;;;1.40;;
7338;SDS011;33747;49.524;8.390;2023-03-23T09:18:16;1.60;;;1.25;;
7338;SDS011;33747;49.524;8.390;2023-03-23T09:20:43;2.35;;;1.50;;
7338;SDS011;33747;49.524;8.390;2023-03-23T09:23:09;4.45;;;2.17;;
7338;SDS011;33747;49.524;8.390;2023-03-23T09:25:34;2.22;;;1.02;;
7338;SDS011;33747;49.524;8.390;2023-03-23T09:28:00;0.77;;;0.73;;
7338;SDS011;33747;49.524;8.390;2023-03-23T09:30:27;0.80;;;0.80;;
7338;SDS011;33747;49.524;8.390;2023-03-23T09:32:54;5.25;;;1.13;;
7338;SDS011;33747;49.524;8.390;2023-03-23T09:35:19;1.48;;;1.35;;
7338;SDS011;33747;49.524;8.390;2023-03-23T09:37:46;2.15;;;0.90;;
7338;SDS011;33747;49.524;8.390;2023-03-23T09:40:14;3.40;;;1.10;;
7338;SDS011;33747;49.524;8.390;2023-03-23T09:45:36;3.13;;;1.85;;
7338;SDS011;33747;49.524;8.390;2023-03-23T09:48:27;0.95;;;0.82;;
7338;SDS011;33747;49.524;8.390;2023-03-23T09:51:03;1.35;;;0.95;;
7338;SDS011;33747;49.524;8.390;2023-03-23T09:56:11;1.75;;;1.17;;
7338;SDS011;33747;49.524;8.390;2023-03-23T10:01:30;2.13;;;0.80;;
7338;SDS011;33747;49.524;8.390;2023-03-23T10:04:17;1.20;;;1.10;;
7338;SDS011;33747;49.524;8.390;2023-03-23T10:06:49;1.88;;;1.10;;
7338;SDS011;33747;49.524;8.390;2023-03-23T10:09:16;2.30;;;1.08;;
7338;SDS011;33747;49.524;8.390;2023-03-23T10:11:56;1.20;;;1.10;;
7338;SDS011;33747;49.524;8.390;2023-03-23T10:22:22;1.77;;;1.23;;
7338;SDS011;33747;49.524;8.390;2023-03-23T10:30:27;2.85;;;1.10;;
7338;SDS011;33747;49.524;8.390;2023-03-23T10:32:58;1.52;;;0.93;;
7338;SDS011;33747;49.524;8.390;2023-03-23T10:35:26;2.50;;;0.82;;
7338;SDS011;33747;49.524;8.390;2023-03-23T10:38:02;1.10;;;0.80;;
7338;SDS011;33747;49.524;8.390;2023-03-23T10:40:44;3.50;;;0.95;;
7338;SDS011;33747;49.524;8.390;2023-03-23T10:43:13;0.68;;;0.50;;
7338;SDS011;33747;49.524;8.390;2023-03-23T10:45:38;1.25;;;1.00;;
7338;SDS011;33747;49.524;8.390;2023-03-23T10:48:14;1.73;;;0.80;;
7338;SDS011;33747;49.524;8.390;2023-03-23T10:50:43;1.63;;;1.20;;
7338;SDS011;33747;49.524;8.390;2023-03-23T10:53:15;0.82;;;0.82;;
7338;SDS011;33747;49.524;8.390;2023-03-23T10:55:43;1.70;;;1.20;;
7338;SDS011;33747;49.524;8.390;2023-03-23T10:58:11;1.92;;;0.88;;
7338;SDS011;33747;49.524;8.390;2023-03-23T11:00:43;0.88;;;0.80;;
7338;SDS011;33747;49.524;8.390;2023-03-23T11:05:40;0.75;;;0.70;;
7338;SDS011;33747;49.524;8.390;2023-03-23T11:08:13;1.02;;;0.52;;
7338;SDS011;33747;49.524;8.390;2023-03-23T11:10:53;0.75;;;0.75;;
7338;SDS011;33747;49.524;8.390;2023-03-23T11:13:27;2.05;;;0.90;;
7338;SDS011;33747;49.524;8.390;2023-03-23T11:15:56;0.77;;;0.77;;
7338;SDS011;33747;49.524;8.390;2023-03-23T11:18:24;6.00;;;0.88;;
7338;SDS011;33747;49.524;8.390;2023-03-23T11:21:00;1.20;;;0.90;;
7338;SDS011;33747;49.524;8.390;2023-03-23T11:23:29;1.67;;;1.00;;
7338;SDS011;33747;49.524;8.390;2023-03-23T11:26:11;5.03;;;1.00;;
7338;SDS011;33747;49.524;8.390;2023-03-23T11:31:41;0.90;;;0.80;;
7338;SDS011;33747;49.524;8.390;2023-03-23T11:37:00;2.38;;;0.85;;
7338;SDS011;33747;49.524;8.390;2023-03-23T11:42:38;0.70;;;0.70;;
7338;SDS011;33747;49.524;8.390;2023-03-23T11:50:46;1.40;;;0.80;;
7338;SDS011;33747;49.524;8.390;2023-03-23T11:58:13;0.90;;;0.50;;
7338;SDS011;33747;49.524;8.390;2023-03-23T12:00:43;0.98;;;0.70;;
7338;SDS011;33747;49.524;8.390;2023-03-23T12:03:31;0.63;;;0.60;;
7338;SDS011;33747;49.524;8.390;2023-03-23T12:06:11;0.60;;;0.60;;
7338;SDS011;33747;49.524;8.390;2023-03-23T12:16:41;2.42;;;0.65;;
7338;SDS011;33747;49.524;8.390;2023-03-23T12:22:11;0.70;;;0.70;;
7338;SDS011;33747;49.524;8.390;2023-03-23T12:27:25;2.83;;;0.60;;
7338;SDS011;33747;49.524;8.390;2023-03-23T12:36:28;1.08;;;0.50;;
7338;SDS011;33747;49.524;8.390;2023-03-23T12:38:33;2.42;;;0.60;;
7338;SDS011;33747;49.524;8.390;2023-03-23T12:46:28;0.82;;;0.55;;
7338;SDS011;33747;49.524;8.390;2023-03-23T12:48:57;0.60;;;0.60;;
7338;SDS011;33747;49.524;8.390;2023-03-23T13:02:18;1.02;;;0.55;;
7338;SDS011;33747;49.524;8.390;2023-03-23T13:04:54;0.93;;;0.70;;
7338;SDS011;33747;49.524;8.390;2023-03-23T13:07:26;0.57;;;0.50;;
7338;SDS011;33747;49.524;8.390;2023-03-23T13:10:01;0.50;;;0.50;;
7338;SDS011;33747;49.524;8.390;2023-03-23T13:12:30;1.50;;;0.80;;
7338;SDS011;33747;49.524;8.390;2023-03-23T13:17:51;2.85;;;0.85;;
7338;SDS011;33747;49.524;8.390;2023-03-23T13:28:22;0.80;;;0.60;;
7338;SDS011;33747;49.524;8.390;2023-03-23T13:33:30;0.40;;;0.40;;
7338;SDS011;33747;49.524;8.390;2023-03-23T13:36:02;8.35;;;1.05;;
7338;SDS011;33747;49.524;8.390;2023-03-23T13:38:33;1.77;;;0.60;;
7338;SDS011;33747;49.524;8.390;2023-03-23T13:41:05;0.90;;;0.80;;
7338;SDS011;33747;49.524;8.390;2023-03-23T13:43:33;0.70;;;0.70;;
7338;SDS011;33747;49.524;8.390;2023-03-23T13:51:24;1.90;;;0.52;;
7338;SDS011;33747;49.524;8.390;2023-03-23T13:54:03;1.08;;;0.63;;
7338;SDS011;33747;49.524;8.390;2023-03-23T13:56:53;1.90;;;0.70;;
7338;SDS011;33747;49.524;8.390;2023-03-23T13:59:29;0.47;;;0.40;;
7338;SDS011;33747;49.524;8.390;2023-03-23T14:01:57;2.00;;;0.80;;
7338;SDS011;33747;49.524;8.390;2023-03-23T14:04:55;1.05;;;0.60;;
7338;SDS011;33747;49.524;8.390;2023-03-23T14:07:21;1.20;;;0.80;;
7338;SDS011;33747;49.524;8.390;2023-03-23T14:09:49;1.15;;;0.70;;
7338;SDS011;33747;49.524;8.390;2023-03-23T14:12:16;2.67;;;0.75;;
7338;SDS011;33747;49.524;8.390;2023-03-23T14:14:47;0.73;;;0.73;;
7338;SDS011;33747;49.524;8.390;2023-03-23T14:17:16;0.75;;;0.75;;
7338;SDS011;33747;49.524;8.390;2023-03-23T14:19:47;1.13;;;0.80;;
7338;SDS011;33747;49.524;8.390;2023-03-23T14:22:19;1.15;;;0.90;;
7338;SDS011;33747;49.524;8.390;2023-03-23T14:24:48;0.80;;;0.80;;
7338;SDS011;33747;49.524;8.390;2023-03-23T14:27:20;1.85;;;0.82;;
7338;SDS011;33747;49.524;8.390;2023-03-23T14:30:00;0.80;;;0.80;;
7338;SDS011;33747;49.524;8.390;2023-03-23T14:32:27;1.02;;;0.85;;
7338;SDS011;33747;49.524;8.390;2023-03-23T14:34:54;1.00;;;1.00;;
7338;SDS011;33747;49.524;8.390;2023-03-23T14:37:20;2.15;;;0.80;;
7338;SDS011;33747;49.524;8.390;2023-03-23T14:39:47;0.75;;;0.70;;
7338;SDS011;33747;49.524;8.390;2023-03-23T14:42:14;1.77;;;0.75;;
7338;SDS011;33747;49.524;8.390;2023-03-23T14:44:43;0.80;;;0.80;;
7338;SDS011;33747;49.524;8.390;2023-03-23T14:49:56;1.48;;;1.00;;
7338;SDS011;33747;49.524;8.390;2023-03-23T14:52:24;1.42;;;1.25;;
7338;SDS011;33747;49.524;8.390;2023-03-23T14:54:51;0.70;;;0.70;;
7338;SDS011;33747;49.524;8.390;2023-03-23T14:57:34;2.20;;;0.90;;
7338;SDS011;33747;49.524;8.390;2023-03-23T14:59:59;1.73;;;1.23;;
7338;SDS011;33747;49.524;8.390;2023-03-23T15:02:27;1.33;;;0.68;;
7338;SDS011;33747;49.524;8.390;2023-03-23T15:05:02;0.77;;;0.73;;
7338;SDS011;33747;49.524;8.390;2023-03-23T15:07:35;2.63;;;0.75;;
7338;SDS011;33747;49.524;8.390;2023-03-23T15:10:01;3.60;;;0.82;;
7338;SDS011;33747;49.524;8.390;2023-03-23T15:12:30;1.20;;;0.93;;
7338;SDS011;33747;49.524;8.390;2023-03-23T15:15:03;1.10;;;0.80;;
7338;SDS011;33747;49.524;8.390;2023-03-23T15:17:31;1.30;;;1.20;;
7338;SDS011;33747;49.524;8.390;2023-03-23T15:20:06;2.70;;;1.13;;
7338;SDS011;33747;49.524;8.390;2023-03-23T15:22:36;1.67;;;1.08;;
7338;SDS011;33747;49.524;8.390;2023-03-23T15:25:12;1.45;;;0.93;;
7338;SDS011;33747;49.524;8.390;2023-03-23T15:27:44;2.20;;;1.20;;
7338;SDS011;33747;49.524;8.390;2023-03-23T15:32:49;1.50;;;1.15;;
7338;SDS011;33747;49.524;8.390;2023-03-23T15:35:20;2.97;;;1.13;;
7338;SDS011;33747;49.524;8.390;2023-03-23T15:37:49;3.58;;;1.15;;
7338;SDS011;33747;49.524;8.390;2023-03-23T15:40:21;1.15;;;1.00;;
7338;SDS011;33747;49.524;8.390;2023-03-23T15:42:47;1.48;;;0.90;;
7338;SDS011;33747;49.524;8.390;2023-03-23T15:52:41;1.45;;;1.08;;
7338;SDS011;33747;49.524;8.390;2023-03-23T15:55:23;1.10;;;1.00;;
7338;SDS011;33747;49.524;8.390;2023-03-23T15:57:50;1.80;;;1.20;;
7338;SDS011;33747;49.524;8.390;2023-03-23T16:00:17;1.40;;;0.88;;
7338;SDS011;33747;49.524;8.390;2023-03-23T16:02:44;1.50;;;1.00;;
7338;SDS011;33747;49.524;8.390;2023-03-23T16:05:12;1.83;;;1.10;;
7338;SDS011;33747;49.524;8.390;2023-03-23T16:07:37;2.80;;;1.52;;
7338;SDS011;33747;49.524;8.390;2023-03-23T16:10:03;1.83;;;1.00;;
7338;SDS011;33747;49.524;8.390;2023-03-23T16:12:30;1.27;;;1.17;;
7338;SDS011;33747;49.524;8.390;2023-03-23T16:14:55;2.55;;;1.10;;
7338;SDS011;33747;49.524;8.390;2023-03-23T16:17:21;6.18;;;1.33;;
7338;SDS011;33747;49.524;8.390;2023-03-23T16:19:46;2.42;;;1.00;;
7338;SDS011;33747;49.524;8.390;2023-03-23T16:22:11;1.30;;;1.20;;
7338;SDS011;33747;49.524;8.390;2023-03-23T16:24:37;3.67;;;1.23;;
7338;SDS011;33747;49.524;8.390;2023-03-23T16:27:02;2.97;;;1.15;;
7338;SDS011;33747;49.524;8.390;2023-03-23T16:29:28;1.60;;;1.50;;
7338;SDS011;33747;49.524;8.390;2023-03-23T16:31:53;2.20;;;1.33;;
7338;SDS011;33747;49.524;8.390;2023-03-23T16:34:19;1.60;;;1.50;;
7338;SDS011;33747;49.524;8.390;2023-03-23T16:36:44;1.40;;;1.30;;
7338;SDS011;33747;49.524;8.390;2023-03-23T16:39:13;2.08;;;1.90;;
7338;SDS011;33747;49.524;8.390;2023-03-23T16:41:42;2.60;;;1.60;;
7338;SDS011;33747;49.524;8.390;2023-03-23T16:44:08;1.42;;;1.35;;
7338;SDS011;33747;49.524;8.390;2023-03-23T16:46:33;2.35;;;1.73;;
7338;SDS011;33747;49.524;8.390;2023-03-23T16:48:59;1.50;;;1.40;;
7338;SDS011;33747;49.524;8.390;2023-03-23T16:51:24;2.08;;;1.50;;
7338;SDS011;33747;49.524;8.390;2023-03-23T16:53:50;3.85;;;1.95;;
7338;SDS011;33747;49.524;8.390;2023-03-23T16:56:15;4.35;;;2.10;;
7338;SDS011;33747;49.524;8.390;2023-03-23T16:58:41;2.10;;;1.73;;
7338;SDS011;33747;49.524;8.390;2023-03-23T17:01:08;7.13;;;2.30;;
7338;SDS011;33747;49.524;8.390;2023-03-23T17:03:34;2.50;;;1.50;;
7338;SDS011;33747;49.524;8.390;2023-03-23T17:06:00;1.77;;;1.50;;
7338;SDS011;33747;49.524;8.390;2023-03-23T17:08:26;2.55;;;1.92;;
7338;SDS011;33747;49.524;8.390;2023-03-23T17:10:51;3.17;;;1.48;;
7338;SDS011;33747;49.524;8.390;2023-03-23T17:13:17;2.53;;;1.92;;
7338;SDS011;33747;49.524;8.390;2023-03-23T17:15:42;4.20;;;2.25;;
7338;SDS011;33747;49.524;8.390;2023-03-23T17:18:08;1.50;;;1.40;;
7338;SDS011;33747;49.524;8.390;2023-03-23T17:20:34;2.08;;;1.55;;
7338;SDS011;33747;49.524;8.390;2023-03-23T17:23:00;2.22;;;2.08;;